Time,TemperatureF,DewpointF,PressureIn,WindDirection,WindDirectionDegrees,WindSpeedMPH,WindSpeedGustMPH,Humidity,HourlyPrecipIn,Conditions,Clouds,dailyrainin,SoftwareType,DateUTC
2013-05-20 00:00:00,58.5,58.3,30.12,SSE,153,2.7,11.9,99,0.00,,,0.00,VWS V14.01,2013-05-20 04:00:00,
2013-05-20 00:10:00,58.6,58.5,30.12,South,171,8.1,8.1,99,0.00,,,0.00,VWS V14.01,2013-05-20 04:10:00,
2013-05-20 00:15:00,58.5,58.3,30.12,ESE,120,2.7,8.3,99,0.00,,,0.00,VWS V14.01,2013-05-20 04:15:00,
2013-05-20 00:20:00,58.6,58.5,30.12,ENE,60,3.6,8.3,99,0.00,,,0.00,VWS V14.01,2013-05-20 04:20:00,
2013-05-20 00:25:00,58.6,58.5,30.12,SSE,163,5.8,8.3,99,0.00,,,0.00,VWS V14.01,2013-05-20 04:25:00,
2013-05-20 00:30:00,58.8,58.6,30.12,South,189,5.4,10.1,99,0.00,,,0.00,VWS V14.01,2013-05-20 04:30:00,
2013-05-20 00:35:00,59.0,58.5,30.12,SE,138,12.3,12.3,98,0.00,,,0.00,VWS V14.01,2013-05-20 04:35:00,
2013-05-20 00:40:00,59.2,58.7,30.12,South,191,4.0,12.3,98,0.00,,,0.00,VWS V14.01,2013-05-20 04:40:00,
2013-05-20 00:50:00,59.4,58.9,30.12,SSW,208,7.6,12.8,98,0.00,,,0.00,VWS V14.01,2013-05-20 04:50:00,
2013-05-20 00:55:00,59.2,58.4,30.12,South,174,5.8,13.2,97,0.00,,,0.00,VWS V14.01,2013-05-20 04:55:00,
2013-05-20 01:00:00,59.2,58.4,30.12,SSE,164,7.6,13.2,97,0.00,,,0.00,VWS V14.01,2013-05-20 05:00:00,
2013-05-20 01:10:00,59.2,58.4,30.09,South,191,4.0,12.8,97,0.00,,,0.00,VWS V14.01,2013-05-20 05:10:00,
2013-05-20 01:15:00,59.2,58.4,30.09,SSW,197,5.8,11.0,97,0.00,,,0.00,VWS V14.01,2013-05-20 05:15:00,
2013-05-20 01:25:00,59.0,58.5,30.09,South,190,6.3,11.4,98,0.00,,,0.00,VWS V14.01,2013-05-20 05:25:00,
2013-05-20 01:30:00,59.2,58.7,30.09,SE,128,4.0,11.4,98,0.00,,,0.00,VWS V14.01,2013-05-20 05:30:00,
2013-05-20 01:35:00,59.2,58.7,30.09,South,183,3.6,11.4,98,0.00,,,0.00,VWS V14.01,2013-05-20 05:35:00,
2013-05-20 01:40:00,59.2,58.7,30.09,SW,214,3.1,10.5,98,0.00,,,0.00,VWS V14.01,2013-05-20 05:40:00,
2013-05-20 01:45:00,59.2,58.7,30.09,South,188,7.6,11.0,98,0.00,,,0.00,VWS V14.01,2013-05-20 05:45:00,
2013-05-20 01:50:00,59.2,58.7,30.09,SSE,163,10.5,11.9,98,0.00,,,0.00,VWS V14.01,2013-05-20 05:50:00,
2013-05-20 02:00:00,59.5,59.1,30.09,South,183,8.7,12.8,98,0.00,,,0.00,VWS V14.01,2013-05-20 06:00:00,
2013-05-20 02:10:00,59.5,59.1,30.09,South,179,5.8,14.1,98,0.00,,,0.00,VWS V14.01,2013-05-20 06:10:00,
2013-05-20 02:15:00,59.5,59.1,30.09,South,172,11.0,14.1,98,0.00,,,0.00,VWS V14.01,2013-05-20 06:15:00,
2013-05-20 02:25:00,59.5,59.3,30.09,SE,139,5.8,15.9,99,0.00,,,0.00,VWS V14.01,2013-05-20 06:25:00,
2013-05-20 02:35:00,59.7,59.5,30.06,SSW,197,4.9,13.2,99,0.00,,,0.00,VWS V14.01,2013-05-20 06:35:00,
2013-05-20 02:40:00,59.7,59.5,30.06,SSW,195,12.3,14.5,99,0.00,,,0.00,VWS V14.01,2013-05-20 06:40:00,
2013-05-20 02:45:00,59.7,59.5,30.06,South,190,2.7,14.5,99,0.00,,,0.00,VWS V14.01,2013-05-20 06:45:00,
2013-05-20 02:55:00,59.5,59.3,30.06,South,190,3.1,12.3,99,0.00,,,0.00,VWS V14.01,2013-05-20 06:55:00,
2013-05-20 03:00:00,59.5,59.3,30.06,SSE,163,6.3,10.5,99,0.00,,,0.00,VWS V14.01,2013-05-20 07:00:00,
2013-05-20 03:10:00,59.5,59.5,30.06,South,191,3.1,10.5,100,0.00,,,0.00,VWS V14.01,2013-05-20 07:10:00,
2013-05-20 03:15:00,59.4,59.4,30.06,South,176,5.4,10.5,100,0.00,,,0.00,VWS V14.01,2013-05-20 07:15:00,
2013-05-20 03:20:00,59.4,59.4,30.06,South,175,8.1,10.5,100,0.00,,,0.00,VWS V14.01,2013-05-20 07:20:00,
2013-05-20 03:25:00,59.4,59.4,30.06,South,183,10.5,10.5,100,0.00,,,0.00,VWS V14.01,2013-05-20 07:25:00,
2013-05-20 03:30:00,59.4,59.4,30.06,South,182,5.8,13.2,100,0.00,,,0.00,VWS V14.01,2013-05-20 07:30:00,
2013-05-20 03:35:00,59.4,59.4,30.06,SSW,192,10.5,13.2,100,0.00,,,0.00,VWS V14.01,2013-05-20 07:35:00,
2013-05-20 03:45:00,59.5,59.5,30.06,South,172,5.8,13.2,100,0.00,,,0.00,VWS V14.01,2013-05-20 07:45:00,
2013-05-20 03:50:00,59.5,59.5,30.06,SSW,193,8.1,13.6,100,0.00,,,0.00,VWS V14.01,2013-05-20 07:50:00,
2013-05-20 03:55:00,59.7,59.7,30.06,SSW,204,9.6,13.6,100,0.00,,,0.00,VWS V14.01,2013-05-20 07:55:00,
2013-05-20 04:00:00,59.7,59.7,30.06,SSW,195,11.0,13.6,100,0.00,,,0.00,VWS V14.01,2013-05-20 08:00:00,
2013-05-20 04:05:00,59.7,59.7,30.06,SSE,167,4.0,12.8,100,0.00,,,0.00,VWS V14.01,2013-05-20 08:05:00,
2013-05-20 04:10:00,59.7,59.7,30.06,SSW,199,11.0,12.8,100,0.00,,,0.00,VWS V14.01,2013-05-20 08:10:00,
2013-05-20 04:20:00,59.7,59.7,30.06,SSE,157,5.8,12.8,100,0.00,,,0.00,VWS V14.01,2013-05-20 08:20:00,
2013-05-20 04:25:00,59.7,59.7,30.06,South,172,7.6,12.8,100,0.00,,,0.00,VWS V14.01,2013-05-20 08:25:00,
2013-05-20 04:30:00,59.7,59.7,30.06,South,186,7.6,13.2,100,0.00,,,0.00,VWS V14.01,2013-05-20 08:30:00,
2013-05-20 04:35:00,59.7,59.7,30.06,SSW,198,5.4,13.2,100,0.00,,,0.00,VWS V14.01,2013-05-20 08:35:00,
2013-05-20 04:45:00,59.7,59.7,30.06,SSW,207,7.6,13.2,100,0.00,,,0.00,VWS V14.01,2013-05-20 08:45:00,
2013-05-20 04:55:00,59.7,59.7,30.06,South,183,5.8,15.0,100,0.00,,,0.00,VWS V14.01,2013-05-20 08:55:00,
2013-05-20 05:00:00,59.7,59.7,30.06,South,170,8.3,15.0,100,0.00,,,0.00,VWS V14.01,2013-05-20 09:00:00,
2013-05-20 05:05:00,59.7,59.7,30.06,South,187,8.1,15.0,100,0.00,,,0.00,VWS V14.01,2013-05-20 09:05:00,
2013-05-20 05:10:00,59.7,59.7,30.06,SSW,200,4.0,15.0,100,0.00,,,0.00,VWS V14.01,2013-05-20 09:10:00,
2013-05-20 05:15:00,59.7,59.7,30.06,SSW,192,4.0,10.1,100,0.00,,,0.00,VWS V14.01,2013-05-20 09:15:00,
2013-05-20 05:20:00,59.7,59.7,30.06,SSE,167,5.4,11.0,100,0.00,,,0.00,VWS V14.01,2013-05-20 09:20:00,
2013-05-20 05:30:00,60.4,60.4,30.06,SSW,198,7.6,13.2,100,0.00,,,0.00,VWS V14.01,2013-05-20 09:30:00,
2013-05-20 05:35:00,60.4,60.4,30.06,SSE,166,6.3,13.2,100,0.00,,,0.00,VWS V14.01,2013-05-20 09:35:00,
2013-05-20 05:40:00,60.4,60.4,30.06,South,181,4.5,13.2,100,0.00,,,0.00,VWS V14.01,2013-05-20 09:40:00,
2013-05-20 05:45:00,60.4,60.4,30.06,South,174,4.0,11.0,100,0.00,,,0.00,VWS V14.01,2013-05-20 09:45:00,
2013-05-20 05:50:00,60.4,60.4,30.06,South,177,3.1,11.0,100,0.00,,,0.00,VWS V14.01,2013-05-20 09:50:00,
2013-05-20 05:55:00,60.4,60.4,30.06,South,187,3.6,11.0,100,0.00,,,0.00,VWS V14.01,2013-05-20 09:55:00,
2013-05-20 06:00:00,60.4,60.4,30.06,SSW,196,2.7,10.1,100,0.00,,,0.00,VWS V14.01,2013-05-20 10:00:00,
2013-05-20 06:05:00,60.4,60.4,30.06,SW,214,4.9,11.0,100,0.00,,,0.00,VWS V14.01,2013-05-20 10:05:00,
2013-05-20 06:10:00,60.4,60.4,30.06,South,186,5.4,11.0,100,0.00,,,0.00,VWS V14.01,2013-05-20 10:10:00,
2013-05-20 06:15:00,60.4,60.4,30.06,SE,143,4.0,11.0,100,0.00,,,0.00,VWS V14.01,2013-05-20 10:15:00,
2013-05-20 06:20:00,60.4,60.4,30.06,SSW,207,3.1,11.0,100,0.00,,,0.00,VWS V14.01,2013-05-20 10:20:00,
2013-05-20 06:25:00,60.4,60.4,30.06,South,190,5.8,11.0,100,0.00,,,0.00,VWS V14.01,2013-05-20 10:25:00,
2013-05-20 06:30:00,60.4,60.4,30.06,South,186,4.0,11.0,100,0.00,,,0.00,VWS V14.01,2013-05-20 10:30:00,
2013-05-20 06:40:00,61.0,61.0,30.09,SSE,167,3.6,10.1,100,0.00,,,0.00,VWS V14.01,2013-05-20 10:40:00,
2013-05-20 06:45:00,61.3,61.3,30.09,South,190,4.0,10.1,100,0.00,,,0.00,VWS V14.01,2013-05-20 10:45:00,
2013-05-20 06:50:00,61.3,61.3,30.09,SSW,196,3.6,10.1,100,0.00,,,0.00,VWS V14.01,2013-05-20 10:50:00,
2013-05-20 06:55:00,61.3,61.3,30.09,South,181,5.8,9.2,100,0.00,,,0.00,VWS V14.01,2013-05-20 10:55:00,
2013-05-20 07:00:00,61.3,61.3,30.09,South,188,3.6,8.7,100,0.00,,,0.00,VWS V14.01,2013-05-20 11:00:00,
2013-05-20 07:05:00,61.3,61.3,30.09,South,186,6.3,8.7,100,0.00,,,0.00,VWS V14.01,2013-05-20 11:05:00,
2013-05-20 07:15:00,62.4,61.9,30.09,SSW,208,3.1,10.5,98,0.00,,,0.00,VWS V14.01,2013-05-20 11:15:00,
2013-05-20 07:20:00,62.4,61.9,30.09,SSW,194,4.0,10.5,98,0.00,,,0.00,VWS V14.01,2013-05-20 11:20:00,
2013-05-20 07:25:00,62.6,61.8,30.09,SSW,205,4.9,8.7,97,0.00,,,0.00,VWS V14.01,2013-05-20 11:25:00,
2013-05-20 07:30:00,62.6,61.8,30.09,South,185,3.6,8.7,97,0.00,,,0.00,VWS V14.01,2013-05-20 11:30:00,
2013-05-20 07:35:00,62.6,61.8,30.09,SSW,194,5.8,8.7,97,0.00,,,0.00,VWS V14.01,2013-05-20 11:35:00,
2013-05-20 07:40:00,62.6,61.8,30.09,South,176,5.4,6.7,97,0.00,,,0.00,VWS V14.01,2013-05-20 11:40:00,
2013-05-20 07:50:00,63.1,61.5,30.09,South,189,4.5,7.6,94,0.00,,,0.00,VWS V14.01,2013-05-20 11:50:00,
2013-05-20 07:55:00,63.7,62.0,30.09,South,190,0.0,7.6,94,0.00,,,0.00,VWS V14.01,2013-05-20 11:55:00,
2013-05-20 08:00:00,63.7,62.0,30.09,South,188,8.7,8.7,94,0.00,,,0.00,VWS V14.01,2013-05-20 12:00:00,
2013-05-20 08:05:00,64.2,61.9,30.09,SSW,195,3.6,8.7,92,0.00,,,0.00,VWS V14.01,2013-05-20 12:05:00,
2013-05-20 08:10:00,64.2,61.9,30.09,South,183,4.0,8.7,92,0.00,,,0.00,VWS V14.01,2013-05-20 12:10:00,
2013-05-20 08:15:00,65.1,61.9,30.09,South,189,2.7,8.7,89,0.00,,,0.00,VWS V14.01,2013-05-20 12:15:00,
2013-05-20 08:25:00,66.4,61.8,30.09,SSW,204,4.0,10.1,85,0.00,,,0.00,VWS V14.01,2013-05-20 12:25:00,
2013-05-20 08:30:00,66.6,62.0,30.09,South,187,3.6,10.1,85,0.00,,,0.00,VWS V14.01,2013-05-20 12:30:00,
2013-05-20 08:35:00,66.6,62.0,30.09,South,180,5.4,10.1,85,0.00,,,0.00,VWS V14.01,2013-05-20 12:35:00,
2013-05-20 08:40:00,66.6,62.0,30.09,SSW,194,4.9,8.7,85,0.00,,,0.00,VWS V14.01,2013-05-20 12:40:00,
2013-05-20 08:45:00,66.6,62.0,30.09,SSW,193,2.7,8.7,85,0.00,,,0.00,VWS V14.01,2013-05-20 12:45:00,
2013-05-20 08:50:00,66.0,61.5,30.09,SSW,205,5.8,8.7,85,0.00,,,0.00,VWS V14.01,2013-05-20 12:50:00,
2013-05-20 09:00:00,65.8,61.3,30.12,SSE,162,2.7,8.3,85,0.00,,,0.00,VWS V14.01,2013-05-20 13:00:00,
2013-05-20 09:10:00,68.0,62.4,30.12,South,186,0.0,8.1,82,0.00,,,0.00,VWS V14.01,2013-05-20 13:10:00,
2013-05-20 09:15:00,68.9,62.9,30.12,South,186,2.7,7.6,81,0.00,,,0.00,VWS V14.01,2013-05-20 13:15:00,
2013-05-20 09:20:00,68.9,62.9,30.12,SE,142,2.7,7.6,81,0.00,,,0.00,VWS V14.01,2013-05-20 13:20:00,
2013-05-20 09:25:00,68.9,62.9,30.09,East,101,2.7,8.7,81,0.00,,,0.00,VWS V14.01,2013-05-20 13:25:00,
2013-05-20 09:35:00,68.9,62.9,30.09,SSW,209,2.7,8.7,81,0.00,,,0.00,VWS V14.01,2013-05-20 13:35:00,
2013-05-20 09:40:00,68.9,62.9,30.09,South,174,3.6,8.7,81,0.00,,,0.00,VWS V14.01,2013-05-20 13:40:00,
2013-05-20 09:45:00,68.9,62.9,30.09,South,188,2.2,8.1,81,0.00,,,0.00,VWS V14.01,2013-05-20 13:45:00,
2013-05-20 09:50:00,68.9,62.9,30.09,SSW,204,7.6,8.3,81,0.00,,,0.00,VWS V14.01,2013-05-20 13:50:00,
2013-05-20 09:55:00,68.9,62.9,30.09,South,170,2.7,8.3,81,0.00,,,0.00,VWS V14.01,2013-05-20 13:55:00,
2013-05-20 10:00:00,68.9,62.9,30.09,SE,136,2.2,8.3,81,0.00,,,0.00,VWS V14.01,2013-05-20 14:00:00,
2013-05-20 10:10:00,68.9,62.9,30.09,SSW,194,8.1,8.1,81,0.00,,,0.00,VWS V14.01,2013-05-20 14:10:00,
2013-05-20 10:15:00,68.9,62.9,30.09,South,175,3.1,9.2,81,0.00,,,0.00,VWS V14.01,2013-05-20 14:15:00,
2013-05-20 10:20:00,68.9,62.9,30.09,South,187,6.3,9.2,81,0.00,,,0.00,VWS V14.01,2013-05-20 14:20:00,
2013-05-20 10:25:00,68.9,62.9,30.06,South,189,0.0,9.2,81,0.00,,,0.00,VWS V14.01,2013-05-20 14:25:00,
2013-05-20 10:30:00,68.9,62.9,30.06,SSE,167,3.1,8.7,81,0.00,,,0.00,VWS V14.01,2013-05-20 14:30:00,
2013-05-20 10:40:00,73.2,60.9,30.06,SSE,165,3.6,8.1,65,0.00,,,0.00,VWS V14.01,2013-05-20 14:40:00,
2013-05-20 10:45:00,73.2,60.9,30.06,ESE,120,3.1,8.1,65,0.00,,,0.00,VWS V14.01,2013-05-20 14:45:00,
2013-05-20 10:50:00,73.9,61.6,30.06,South,188,0.0,8.1,65,0.00,,,0.00,VWS V14.01,2013-05-20 14:50:00,
2013-05-20 10:55:00,73.6,59.9,30.06,SSW,205,2.2,5.8,62,0.00,,,0.00,VWS V14.01,2013-05-20 14:55:00,
2013-05-20 11:00:00,73.6,59.9,30.06,SW,217,3.1,5.8,62,0.00,,,0.00,VWS V14.01,2013-05-20 15:00:00,
2013-05-20 11:10:00,73.6,59.9,30.06,West,262,4.0,8.7,62,0.00,,,0.00,VWS V14.01,2013-05-20 15:10:00,
2013-05-20 11:20:00,75.6,59.9,30.06,SSW,206,4.9,8.3,58,0.00,,,0.00,VWS V14.01,2013-05-20 15:20:00,
2013-05-20 11:25:00,75.6,59.9,30.06,NW,305,5.4,8.3,58,0.00,,,0.00,VWS V14.01,2013-05-20 15:25:00,
2013-05-20 11:30:00,75.7,59.6,30.06,SSE,166,0.0,8.3,57,0.00,,,0.00,VWS V14.01,2013-05-20 15:30:00,
2013-05-20 11:35:00,75.7,59.6,30.06,SSE,164,2.7,5.4,57,0.00,,,0.00,VWS V14.01,2013-05-20 15:35:00,
2013-05-20 11:40:00,75.7,59.6,30.06,SSW,211,2.7,5.4,57,0.00,,,0.00,VWS V14.01,2013-05-20 15:40:00,
2013-05-20 11:45:00,75.7,59.6,30.06,SSE,167,2.7,4.9,57,0.00,,,0.00,VWS V14.01,2013-05-20 15:45:00,
2013-05-20 11:55:00,76.1,59.9,30.06,South,184,0.0,5.8,57,0.00,,,0.00,VWS V14.01,2013-05-20 15:55:00,
2013-05-20 12:00:00,76.1,59.9,30.06,SW,216,3.6,5.8,57,0.00,,,0.00,VWS V14.01,2013-05-20 16:00:00,
2013-05-20 12:10:00,78.6,61.8,30.06,South,171,2.2,5.8,56,0.00,,,0.00,VWS V14.01,2013-05-20 16:10:00,
2013-05-20 12:15:00,78.4,61.6,30.06,South,183,0.0,5.8,56,0.00,,,0.00,VWS V14.01,2013-05-20 16:15:00,
2013-05-20 12:20:00,78.4,61.6,30.06,South,183,2.2,4.0,56,0.00,,,0.00,VWS V14.01,2013-05-20 16:20:00,
2013-05-20 12:30:00,78.4,61.6,30.06,East,96,0.0,4.0,56,0.00,,,0.00,VWS V14.01,2013-05-20 16:30:00,
2013-05-20 12:35:00,78.4,61.6,30.06,ENE,57,2.7,4.0,56,0.00,,,0.00,VWS V14.01,2013-05-20 16:35:00,
2013-05-20 12:40:00,78.6,62.3,30.06,NE,34,3.6,4.0,57,0.00,,,0.00,VWS V14.01,2013-05-20 16:40:00,
2013-05-20 12:45:00,78.6,62.3,30.06,NNE,25,3.6,5.4,57,0.00,,,0.00,VWS V14.01,2013-05-20 16:45:00,
2013-05-20 12:50:00,77.5,61.3,30.06,East,90,2.7,5.4,57,0.00,,,0.00,VWS V14.01,2013-05-20 16:50:00,
2013-05-20 12:55:00,77.5,61.3,30.06,East,89,5.4,6.3,57,0.00,,,0.00,VWS V14.01,2013-05-20 16:55:00,
2013-05-20 13:00:00,78.8,62.4,30.06,ESE,122,0.0,6.3,57,0.00,,,0.00,VWS V14.01,2013-05-20 17:00:00,
2013-05-20 13:05:00,78.8,62.4,30.06,ENE,60,3.6,6.3,57,0.00,,,0.00,VWS V14.01,2013-05-20 17:05:00,
2013-05-20 13:10:00,77.7,60.4,30.03,North,0,0.0,4.9,55,0.00,,,0.00,VWS V14.01,2013-05-20 17:10:00,
2013-05-20 13:15:00,77.7,60.4,30.03,North,357,2.7,5.4,55,0.00,,,0.00,VWS V14.01,2013-05-20 17:15:00,
2013-05-20 13:20:00,76.6,60.4,30.03,WNW,299,3.1,5.4,57,0.00,,,0.00,VWS V14.01,2013-05-20 17:20:00,
2013-05-20 13:30:00,79.5,62.1,30.06,ENE,76,2.7,4.9,55,0.00,,,0.00,VWS V14.01,2013-05-20 17:30:00,
2013-05-20 13:40:00,80.1,61.0,30.03,NNE,20,3.1,4.9,52,0.00,,,0.00,VWS V14.01,2013-05-20 17:40:00,
2013-05-20 13:45:00,82.2,62.5,30.03,NNE,32,2.2,5.8,51,0.00,,,0.00,VWS V14.01,2013-05-20 17:45:00,
2013-05-20 13:50:00,81.9,61.0,30.03,NE,56,3.6,5.8,49,0.00,,,0.00,VWS V14.01,2013-05-20 17:50:00,
2013-05-20 13:55:00,83.3,60.6,30.03,North,10,0.0,5.4,46,0.00,,,0.00,VWS V14.01,2013-05-20 17:55:00,
2013-05-20 14:00:00,84.4,60.9,30.03,North,5,2.2,4.9,45,0.00,,,0.00,VWS V14.01,2013-05-20 18:00:00,
2013-05-20 14:10:00,84.0,61.2,30.03,NNW,338,4.0,5.4,46,0.00,,,0.00,VWS V14.01,2013-05-20 18:10:00,
2013-05-20 14:15:00,83.3,61.8,30.03,ENE,57,0.0,5.4,48,0.00,,,0.00,VWS V14.01,2013-05-20 18:15:00,
2013-05-20 14:20:00,84.9,62.6,30.03,NNE,28,2.7,5.4,47,0.00,,,0.00,VWS V14.01,2013-05-20 18:20:00,
2013-05-20 14:25:00,82.4,59.1,30.03,SW,226,7.2,7.2,45,0.00,,,0.00,VWS V14.01,2013-05-20 18:25:00,
2013-05-20 14:30:00,83.1,60.4,30.03,South,191,8.1,8.7,46,0.00,,,0.00,VWS V14.01,2013-05-20 18:30:00,
2013-05-20 14:35:00,82.6,59.3,30.03,SW,226,6.3,8.7,45,0.00,,,0.00,VWS V14.01,2013-05-20 18:35:00,
2013-05-20 14:40:00,83.7,60.9,30.03,SSE,168,2.2,8.7,46,0.00,,,0.00,VWS V14.01,2013-05-20 18:40:00,
2013-05-20 14:50:00,81.9,60.4,30.03,SSE,160,5.8,6.7,48,0.00,,,0.00,VWS V14.01,2013-05-20 18:50:00,
2013-05-20 14:55:00,81.7,59.7,30.03,SSW,198,2.7,7.6,47,0.00,,,0.00,VWS V14.01,2013-05-20 18:55:00,
2013-05-20 15:00:00,81.9,59.8,30.03,SW,227,6.3,8.1,47,0.00,,,0.00,VWS V14.01,2013-05-20 19:00:00,
2013-05-20 15:05:00,82.8,60.1,30.03,SSW,210,5.4,8.3,46,0.00,,,0.00,VWS V14.01,2013-05-20 19:05:00,
2013-05-20 15:15:00,80.6,59.3,30.03,South,182,5.4,8.1,48,0.00,,,0.00,VWS V14.01,2013-05-20 19:15:00,
2013-05-20 15:25:00,81.0,59.6,30.03,NW,309,3.6,10.1,48,0.00,,,0.00,VWS V14.01,2013-05-20 19:25:00,
2013-05-20 15:30:00,79.5,59.4,30.03,NNW,327,3.6,5.8,50,0.00,,,0.00,VWS V14.01,2013-05-20 19:30:00,
2013-05-20 15:35:00,79.2,60.7,30.03,NNW,345,4.0,5.8,53,0.00,,,0.00,VWS V14.01,2013-05-20 19:35:00,
2013-05-20 15:40:00,79.3,60.9,30.03,North,3,2.2,5.4,53,0.00,,,0.00,VWS V14.01,2013-05-20 19:40:00,
2013-05-20 15:45:00,80.8,60.6,30.03,NNW,348,0.0,6.3,50,0.00,,,0.00,VWS V14.01,2013-05-20 19:45:00,
2013-05-20 15:50:00,81.0,60.8,30.03,NW,323,4.9,6.3,50,0.00,,,0.00,VWS V14.01,2013-05-20 19:50:00,
2013-05-20 16:00:00,80.6,61.0,30.03,NNE,12,3.1,5.8,51,0.00,,,0.00,VWS V14.01,2013-05-20 20:00:00,
2013-05-20 16:10:00,84.0,63.0,30.00,NE,35,0.0,5.8,49,0.00,,,0.00,VWS V14.01,2013-05-20 20:10:00,
2013-05-20 16:15:00,84.4,60.9,30.00,SSW,198,7.6,7.6,45,0.00,,,0.00,VWS V14.01,2013-05-20 20:15:00,
2013-05-20 16:20:00,84.6,60.5,30.00,South,189,3.6,8.7,44,0.00,,,0.00,VWS V14.01,2013-05-20 20:20:00,
2013-05-20 16:25:00,84.7,60.6,30.00,SW,226,8.7,8.7,44,0.00,,,0.00,VWS V14.01,2013-05-20 20:25:00,
2013-05-20 16:35:00,84.6,60.5,30.00,WNW,296,5.8,8.7,44,0.00,,,0.00,VWS V14.01,2013-05-20 20:35:00,
2013-05-20 16:40:00,83.5,60.1,30.00,WSW,258,3.6,7.6,45,0.00,,,0.00,VWS V14.01,2013-05-20 20:40:00,
2013-05-20 16:45:00,83.8,60.4,30.00,NW,316,5.4,7.6,45,0.00,,,0.00,VWS V14.01,2013-05-20 20:45:00,
2013-05-20 16:50:00,82.8,59.5,30.00,WNW,288,3.1,6.7,45,0.00,,,0.00,VWS V14.01,2013-05-20 20:50:00,
2013-05-20 16:55:00,81.3,58.8,30.00,SSW,210,2.7,8.3,46,0.00,,,0.00,VWS V14.01,2013-05-20 20:55:00,
2013-05-20 17:00:00,81.3,58.8,30.00,West,261,2.7,8.3,46,0.00,,,0.00,VWS V14.01,2013-05-20 21:00:00,
2013-05-20 17:10:00,80.8,58.9,30.00,WSW,244,5.4,7.6,47,0.00,,,0.00,VWS V14.01,2013-05-20 21:10:00,
2013-05-20 17:15:00,80.8,58.9,30.00,WSW,242,2.7,7.6,47,0.00,,,0.00,VWS V14.01,2013-05-20 21:15:00,
2013-05-20 17:20:00,84.2,60.8,30.00,WSW,246,2.2,7.6,45,0.00,,,0.00,VWS V14.01,2013-05-20 21:20:00,
2013-05-20 17:25:00,84.6,60.5,30.00,NW,325,2.7,4.0,44,0.00,,,0.00,VWS V14.01,2013-05-20 21:25:00,
2013-05-20 17:30:00,83.1,59.8,30.00,West,274,4.0,7.6,45,0.00,,,0.00,VWS V14.01,2013-05-20 21:30:00,
2013-05-20 17:35:00,83.8,60.4,30.00,NNE,16,5.8,7.6,45,0.00,,,0.00,VWS V14.01,2013-05-20 21:35:00,
2013-05-20 17:45:00,84.4,60.3,30.00,North,0,2.2,6.3,44,0.00,,,0.00,VWS V14.01,2013-05-20 21:45:00,
2013-05-20 17:50:00,86.0,61.8,30.00,NE,42,0.0,4.0,44,0.00,,,0.00,VWS V14.01,2013-05-20 21:50:00,
2013-05-20 17:55:00,84.4,60.9,29.97,East,95,0.0,4.0,45,0.00,,,0.00,VWS V14.01,2013-05-20 21:55:00,
2013-05-20 18:00:00,83.5,60.1,29.97,East,93,0.0,4.0,45,0.00,,,0.00,VWS V14.01,2013-05-20 22:00:00,
2013-05-20 18:10:00,83.1,60.4,29.97,East,92,0.0,3.1,46,0.00,,,0.00,VWS V14.01,2013-05-20 22:10:00,
2013-05-20 18:15:00,81.3,60.0,29.97,East,92,0.0,3.1,48,0.00,,,0.00,VWS V14.01,2013-05-20 22:15:00,
2013-05-20 18:20:00,80.2,59.0,29.97,East,92,0.0,2.7,48,0.00,,,0.00,VWS V14.01,2013-05-20 22:20:00,
2013-05-20 18:25:00,80.1,59.9,29.97,East,92,0.0,0.0,50,0.00,,,0.00,VWS V14.01,2013-05-20 22:25:00,
2013-05-20 18:30:00,81.5,60.7,29.97,East,92,0.0,0.0,49,0.00,,,0.00,VWS V14.01,2013-05-20 22:30:00,
2013-05-20 18:35:00,83.3,61.2,29.97,East,92,0.0,2.2,47,0.00,,,0.00,VWS V14.01,2013-05-20 22:35:00,
2013-05-20 18:40:00,83.5,60.7,29.97,East,92,2.2,2.2,46,0.00,,,0.00,VWS V14.01,2013-05-20 22:40:00,
2013-05-20 18:45:00,82.0,59.4,29.97,East,92,0.0,2.2,46,0.00,,,0.00,VWS V14.01,2013-05-20 22:45:00,
2013-05-20 18:55:00,80.4,59.1,29.97,East,92,0.0,0.0,48,0.00,,,0.00,VWS V14.01,2013-05-20 22:55:00,
2013-05-20 19:00:00,78.8,60.4,29.97,ESE,112,0.0,3.6,53,0.00,,,0.00,VWS V14.01,2013-05-20 23:00:00,
2013-05-20 19:10:00,78.1,61.3,29.97,ENE,66,3.1,3.6,56,0.00,,,0.00,VWS V14.01,2013-05-20 23:10:00,
2013-05-20 19:15:00,77.9,61.1,29.97,ESE,112,0.0,3.6,56,0.00,,,0.00,VWS V14.01,2013-05-20 23:15:00,
2013-05-20 19:20:00,78.4,61.6,29.97,ESE,112,0.0,3.6,56,0.00,,,0.00,VWS V14.01,2013-05-20 23:20:00,
2013-05-20 19:25:00,78.6,61.8,29.94,ESE,112,0.0,3.1,56,0.00,,,0.00,VWS V14.01,2013-05-20 23:25:00,
2013-05-20 19:30:00,78.3,61.4,29.94,ESE,110,0.0,3.6,56,0.00,,,0.00,VWS V14.01,2013-05-20 23:30:00,
2013-05-20 19:35:00,78.3,61.4,29.94,East,98,0.0,3.6,56,0.00,,,0.00,VWS V14.01,2013-05-20 23:35:00,
2013-05-20 19:40:00,77.4,60.6,29.94,SE,140,2.7,3.6,56,0.00,,,0.00,VWS V14.01,2013-05-20 23:40:00,
2013-05-20 19:45:00,76.5,60.3,29.94,SE,139,2.2,3.1,57,0.00,,,0.00,VWS V14.01,2013-05-20 23:45:00,
2013-05-20 19:50:00,76.3,60.1,29.94,ESE,112,0.0,3.6,57,0.00,,,0.00,VWS V14.01,2013-05-20 23:50:00,
2013-05-20 19:55:00,75.9,59.8,29.94,South,170,2.7,3.6,57,0.00,,,0.00,VWS V14.01,2013-05-20 23:55:00,
2013-05-20 20:00:00,75.6,59.9,29.94,SSE,157,2.7,3.6,58,0.00,,,0.00,VWS V14.01,2013-05-21 00:00:00,
2013-05-20 20:10:00,74.5,59.4,29.97,South,189,0.0,2.7,59,0.00,,,0.00,VWS V14.01,2013-05-21 00:10:00,
2013-05-20 20:15:00,74.7,59.5,29.97,SSE,163,2.7,3.6,59,0.00,,,0.00,VWS V14.01,2013-05-21 00:15:00,
2013-05-20 20:20:00,74.1,59.5,29.97,SSE,163,0.0,3.6,60,0.00,,,0.00,VWS V14.01,2013-05-21 00:20:00,
2013-05-20 20:25:00,72.9,59.7,29.97,SSE,163,0.0,3.6,63,0.00,,,0.00,VWS V14.01,2013-05-21 00:25:00,
2013-05-20 20:30:00,71.8,59.5,29.97,SSE,163,0.0,0.0,65,0.00,,,0.00,VWS V14.01,2013-05-21 00:30:00,
2013-05-20 20:35:00,70.7,61.0,29.97,SSE,163,0.0,2.7,71,0.00,,,0.00,VWS V14.01,2013-05-21 00:35:00,
2013-05-20 20:40:00,70.2,62.0,29.97,SSE,163,0.0,2.7,75,0.00,,,0.00,VWS V14.01,2013-05-21 00:40:00,
2013-05-20 20:45:00,69.8,62.4,29.97,SSE,163,0.0,2.7,77,0.00,,,0.00,VWS V14.01,2013-05-21 00:45:00,
2013-05-20 20:50:00,69.4,62.8,29.97,SSE,163,0.0,2.2,79,0.00,,,0.00,VWS V14.01,2013-05-21 00:50:00,
2013-05-20 20:55:00,68.7,62.1,29.97,SSE,163,2.7,2.7,79,0.00,,,0.00,VWS V14.01,2013-05-21 00:55:00,
2013-05-20 21:00:00,68.2,62.6,29.97,SSE,162,3.6,3.6,82,0.00,,,0.00,VWS V14.01,2013-05-21 01:00:00,
2013-05-20 21:10:00,68.0,62.8,29.97,SSE,162,0.0,3.6,83,0.00,,,0.00,VWS V14.01,2013-05-21 01:10:00,
2013-05-20 21:15:00,67.5,62.2,29.97,SSE,162,2.7,3.1,83,0.00,,,0.00,VWS V14.01,2013-05-21 01:15:00,
2013-05-20 21:20:00,66.9,62.4,29.97,SSE,162,2.2,3.1,85,0.00,,,0.00,VWS V14.01,2013-05-21 01:20:00,
2013-05-20 21:25:00,66.6,62.3,29.97,SSE,162,0.0,3.1,86,0.00,,,0.00,VWS V14.01,2013-05-21 01:25:00,
2013-05-20 21:30:00,66.0,62.5,29.97,SSE,162,2.7,3.1,88,0.00,,,0.00,VWS V14.01,2013-05-21 01:30:00,
2013-05-20 21:35:00,66.0,63.1,29.97,SSE,162,2.7,3.6,90,0.00,,,0.00,VWS V14.01,2013-05-21 01:35:00,
2013-05-20 21:40:00,66.0,63.4,29.97,SSE,162,2.2,3.6,91,0.00,,,0.00,VWS V14.01,2013-05-21 01:40:00,
2013-05-20 21:45:00,65.8,63.2,29.97,SSE,162,2.7,3.1,91,0.00,,,0.00,VWS V14.01,2013-05-21 01:45:00,
2013-05-20 21:50:00,65.7,63.1,29.97,SSE,162,0.0,2.7,91,0.00,,,0.00,VWS V14.01,2013-05-21 01:50:00,
2013-05-20 21:55:00,65.1,62.2,30.00,SSE,162,0.0,3.1,90,0.00,,,0.00,VWS V14.01,2013-05-21 01:55:00,
2013-05-20 22:00:00,64.8,62.5,30.00,SSE,162,2.2,3.1,92,0.00,,,0.00,VWS V14.01,2013-05-21 02:00:00,
2013-05-20 22:10:00,64.8,63.1,30.00,SSE,162,2.7,3.6,94,0.00,,,0.00,VWS V14.01,2013-05-21 02:10:00,
2013-05-20 22:15:00,64.0,62.4,30.00,NNE,28,0.0,3.6,94,0.00,,,0.00,VWS V14.01,2013-05-21 02:15:00,
2013-05-20 22:20:00,64.2,62.8,30.00,NNW,346,0.0,3.1,95,0.00,,,0.00,VWS V14.01,2013-05-21 02:20:00,
2013-05-20 22:25:00,63.9,62.5,30.00,NNW,346,0.0,3.1,95,0.00,,,0.00,VWS V14.01,2013-05-21 02:25:00,
2013-05-20 22:30:00,64.0,63.0,30.00,NNW,346,2.2,3.1,96,0.00,,,0.00,VWS V14.01,2013-05-21 02:30:00,
2013-05-20 22:35:00,63.7,62.3,30.00,NNW,346,0.0,2.7,95,0.00,,,0.00,VWS V14.01,2013-05-21 02:35:00,
2013-05-20 22:40:00,63.5,62.4,29.97,NNW,346,0.0,2.7,96,0.00,,,0.00,VWS V14.01,2013-05-21 02:40:00,
2013-05-20 22:45:00,62.8,61.4,29.97,NNW,348,0.0,2.2,95,0.00,,,0.00,VWS V14.01,2013-05-21 02:45:00,
2013-05-20 22:50:00,63.1,62.1,29.97,NNW,346,2.7,2.7,96,0.00,,,0.00,VWS V14.01,2013-05-21 02:50:00,
2013-05-20 22:55:00,63.1,62.4,29.97,NNW,346,0.0,2.7,97,0.00,,,0.00,VWS V14.01,2013-05-21 02:55:00,
2013-05-20 23:00:00,63.3,62.5,29.97,NNW,346,0.0,2.7,97,0.00,,,0.00,VWS V14.01,2013-05-21 03:00:00,
2013-05-20 23:10:00,62.8,62.0,29.97,ENE,58,0.0,2.2,97,0.00,,,0.00,VWS V14.01,2013-05-21 03:10:00,
2013-05-20 23:15:00,63.0,62.5,29.97,SE,140,0.0,2.7,98,0.00,,,0.00,VWS V14.01,2013-05-21 03:15:00,
2013-05-20 23:20:00,63.1,62.7,29.97,SSE,160,2.7,3.1,98,0.00,,,0.00,VWS V14.01,2013-05-21 03:20:00,
2013-05-20 23:25:00,62.8,62.3,29.97,SE,145,2.2,5.4,98,0.00,,,0.00,VWS V14.01,2013-05-21 03:25:00,
2013-05-20 23:30:00,64.9,64.4,29.97,SSW,192,4.0,6.3,98,0.00,,,0.00,VWS V14.01,2013-05-21 03:30:00,
2013-05-20 23:35:00,64.9,64.4,29.97,South,180,4.0,6.3,98,0.00,,,0.00,VWS V14.01,2013-05-21 03:35:00,
2013-05-20 23:40:00,64.9,64.4,29.97,South,180,7.6,8.3,98,0.00,,,0.00,VWS V14.01,2013-05-21 03:40:00,
2013-05-20 23:45:00,69.3,62.6,29.97,SSW,195,5.4,8.3,79,0.00,,,0.00,VWS V14.01,2013-05-21 03:45:00,
2013-05-20 23:50:00,69.3,62.2,29.97,SSW,196,5.8,8.3,78,0.00,,,0.00,VWS V14.01,2013-05-21 03:50:00,
2013-05-20 23:55:00,69.3,62.2,29.97,South,186,6.3,8.1,78,0.00,,,0.00,VWS V14.01,2013-05-21 03:55:00,